Aérodrome :
LOGIN :

S'inscrire | Disclaimer

   EN    FR    IT 

 










Légende :    VFR   VFR Marginal   IFR   IFR Intensif   IFR Très Intensif
Visi : 
Plafond : 
>= 8 km
>= 3000ft
5 à 8 km
1000 à 3000 ft
1500m à 5 km
500 à 1000 ft
800 à 1500m
200 à 500 ft
< 800m
< 200 ft
Symboles :   Orages  Brouillard  Fortes neiges  Fortes précipitations  Vent > 20 kt
SIGMETs :   Divers  Orages  Givrage  Turbulence  Onde Orograph.  Cendres Volcan.







- Altitude de l'aérodrome : 220 ft
- Code IATA : CWL
- Voir les cartes d'approche


EGFF - Cardiff Rhoose

DERNIER METAR :
  • 260350Z AUTO 35008KT 9999 NCD 02/M01 Q1018

METARs EXPIRÉS :
  • 260320Z AUTO 01008KT 9999 NCD 02/M01 Q1018
  • 260250Z AUTO 01008KT 9999 NCD 03/M00 Q1018
  • 260220Z AUTO 01011KT 9999 NCD 03/M00 Q1018
  • 260150Z AUTO 02008KT 9999 NCD 03/M00 Q1018
  • 260120Z AUTO 01009KT 9999 NCD 03/M00 Q1018

TAF TAF EGFF
Valide du 26 à 00h jusqu'au 27 à 00h UTC


252254Z 2600/2624 01006KT 9999 FEW030
PROB30
TEMPO 2612/2618 7000 SHRA
ATIS : +44 1446 729 319
Pas de NOTAMs connus pour ce terrain.



MET'MAP, la Météo Aéronautique d'un coup d'oeil ! - Copyright ORBIFLY Décembre 2007 - Disclaimer

ORBIFLY MET'MAP TEAM :

Programmation & Développement : Alexandra Zaïnal
Conception & Développement : Baudouin d'Aumeries
Co-Programmation & Développement : Marc-Olivier Méhu
Soutien technique & logistique : Manuel Goepfert

Contact : metmap@orbifly.com




SOURCES & CREDITS :

   NOAA